createdAt,value
2023-03-28T00:00:48.822Z,101047.84
2023-03-28T00:03:18.976Z,101055.16
2023-03-28T00:05:51.349Z,101058.94
2023-03-28T00:08:18.970Z,101063.31
2023-03-28T00:10:46.623Z,101056.38
2023-03-28T00:13:14.756Z,101054.53
2023-03-28T00:15:43.187Z,101067.25
2023-03-28T00:18:11.641Z,101068.44
2023-03-28T00:20:42.750Z,101070.53
2023-03-28T00:23:13.304Z,101080.75
2023-03-28T00:25:41.994Z,101073.78
2023-03-28T00:28:09.731Z,101075.53
2023-03-28T00:30:37.040Z,101080.75
2023-03-28T00:33:07.644Z,101084.28
2023-03-28T00:35:35.901Z,101087.44
2023-03-28T00:38:03.326Z,101086.13
2023-03-28T00:40:38.978Z,101086.25
2023-03-28T00:43:06.593Z,101100.50
2023-03-28T00:45:34.321Z,101099.75
2023-03-28T00:48:06.771Z,101097.69
2023-03-28T00:50:46.825Z,101096.34
2023-03-28T00:53:21.461Z,101101.13
2023-03-28T00:55:57.520Z,101099.66
2023-03-28T00:58:27.570Z,101106.13
2023-03-28T01:00:55.541Z,101108.66
2023-03-28T01:03:27.842Z,101111.47
2023-03-28T01:05:56.610Z,101121.34
2023-03-28T01:08:26.536Z,101122.06
2023-03-28T01:10:53.721Z,101116.59
2023-03-28T01:13:26.292Z,101130.13
2023-03-28T01:15:53.888Z,101123.06
2023-03-28T01:18:22.808Z,101129.03
2023-03-28T01:21:02.189Z,101131.19
2023-03-28T01:24:11.785Z,101134.63
2023-03-28T01:26:47.596Z,101134.03
2023-03-28T01:29:28.961Z,101130.59
2023-03-28T01:32:11.338Z,101135.09
2023-03-28T01:35:06.398Z,101139.38
2023-03-28T01:37:42.463Z,101134.50
2023-03-28T01:40:39.635Z,101146.81
2023-03-28T01:43:38.703Z,101150.13
2023-03-28T01:46:20.702Z,101149.13
2023-03-28T01:48:50.933Z,101150.34
2023-03-28T01:51:35.263Z,101151.44
2023-03-28T01:54:13.257Z,101158.38
2023-03-28T01:56:47.095Z,101160.81
2023-03-28T01:59:38.726Z,101164.13
2023-03-28T02:02:21.651Z,101154.63
2023-03-28T02:04:49.610Z,101163.00
2023-03-28T02:07:18.987Z,101170.19
2023-03-28T02:09:47.646Z,101164.97
2023-03-28T02:12:30.919Z,101176.66
2023-03-28T02:14:59.420Z,101181.06
2023-03-28T02:17:29.006Z,101187.03
2023-03-28T02:19:59.499Z,101187.91
2023-03-28T02:22:33.917Z,101198.63
2023-03-28T02:25:01.286Z,101201.53
2023-03-28T02:27:28.589Z,101201.53
2023-03-28T02:29:55.985Z,101205.06
2023-03-28T02:32:23.838Z,101211.28
2023-03-28T02:34:53.507Z,101201.66
2023-03-28T02:37:51.925Z,101209.34
2023-03-28T02:40:44.290Z,101221.28
2023-03-28T02:43:37.254Z,101219.69
2023-03-28T02:46:09.060Z,101223.22
2023-03-28T02:49:15.071Z,101231.25
2023-03-28T02:51:52.699Z,101237.38
2023-03-28T02:54:31.080Z,101232.13
2023-03-28T02:57:16.666Z,101237.63
2023-03-28T02:59:56.191Z,101242.97
2023-03-28T03:02:23.606Z,101239.22
2023-03-28T03:04:51.510Z,101243.19
2023-03-28T03:07:19.303Z,101261.53
2023-03-28T03:09:46.897Z,101261.13
2023-03-28T03:12:14.461Z,101259.34
2023-03-28T03:14:42.036Z,101269.88
2023-03-28T03:17:09.304Z,101271.00
2023-03-28T03:19:36.470Z,101277.09
2023-03-28T03:22:03.747Z,101276.13
2023-03-28T03:24:34.568Z,101281.91
2023-03-28T03:27:02.216Z,101276.56
2023-03-28T03:29:38.757Z,101277.22
2023-03-28T03:32:06.621Z,101278.25
2023-03-28T03:34:34.061Z,101279.09
2023-03-28T03:37:02.408Z,101288.00
2023-03-28T03:39:29.771Z,101292.44
2023-03-28T03:41:57.365Z,101294.44
2023-03-28T03:44:24.676Z,101305.06
2023-03-28T03:46:51.873Z,101310.66
2023-03-28T03:49:19.062Z,101316.25
2023-03-28T03:51:46.268Z,101315.25
2023-03-28T03:54:13.449Z,101316.47
2023-03-28T03:56:40.670Z,101315.03
2023-03-28T03:59:07.928Z,101323.31
2023-03-28T04:01:35.116Z,101321.81
2023-03-28T04:04:02.412Z,101329.44
2023-03-28T04:06:29.662Z,101329.19
2023-03-28T04:08:56.858Z,101326.44
2023-03-28T04:11:24.026Z,101334.03
2023-03-28T04:13:51.197Z,101338.31
2023-03-28T04:16:20.819Z,101343.06
2023-03-28T04:18:51.108Z,101357.88
2023-03-28T04:21:20.879Z,101353.91
2023-03-28T04:23:48.433Z,101365.34
2023-03-28T04:26:20.567Z,101366.66
2023-03-28T04:28:48.209Z,101377.16
2023-03-28T04:31:15.567Z,101372.78
2023-03-28T04:33:45.342Z,101375.22
2023-03-28T04:36:12.706Z,101379.63
2023-03-28T04:38:41.712Z,101381.25
2023-03-28T04:41:08.884Z,101390.47
2023-03-28T04:43:36.084Z,101398.78
2023-03-28T04:46:03.808Z,101403.53
2023-03-28T04:48:31.313Z,101411.47
2023-03-28T04:50:58.502Z,101410.44
2023-03-28T04:53:25.918Z,101422.09
2023-03-28T04:55:53.385Z,101417.50
2023-03-28T04:58:22.905Z,101417.50
2023-03-28T05:00:50.504Z,101426.41
2023-03-28T05:03:20.360Z,101419.84
2023-03-28T05:05:48.691Z,101432.81
2023-03-28T05:08:17.391Z,101439.94
2023-03-28T05:10:48.063Z,101444.63
2023-03-28T05:13:16.288Z,101450.13
2023-03-28T05:15:44.079Z,101453.97
2023-03-28T05:18:12.009Z,101466.09
2023-03-28T05:20:39.253Z,101462.09
2023-03-28T05:23:07.303Z,101470.06
2023-03-28T05:25:35.123Z,101470.06
2023-03-28T05:28:02.919Z,101483.97
2023-03-28T05:30:30.103Z,101481.94
2023-03-28T05:32:57.368Z,101491.38
2023-03-28T05:35:24.627Z,101496.28
2023-03-28T05:37:51.847Z,101495.84
2023-03-28T05:40:19.367Z,101506.00
2023-03-28T05:42:46.890Z,101501.56
2023-03-28T05:45:14.461Z,101506.31
2023-03-28T05:47:41.757Z,101505.41
2023-03-28T05:50:09.521Z,101517.09
2023-03-28T05:52:36.721Z,101514.19
2023-03-28T05:55:04.175Z,101524.28
2023-03-28T05:57:31.471Z,101524.59
2023-03-28T05:59:58.652Z,101522.91
2023-03-28T06:02:26.415Z,101520.00
2023-03-28T06:04:54.663Z,101537.34
2023-03-28T06:07:35.229Z,101528.97
2023-03-28T06:10:08.398Z,101541.75
2023-03-28T06:12:35.960Z,101536.59
2023-03-28T06:15:04.617Z,101539.94
2023-03-28T06:17:31.935Z,101549.88
2023-03-28T06:19:59.460Z,101550.44
2023-03-28T06:22:26.924Z,101549.06
2023-03-28T06:24:54.403Z,101544.03
2023-03-28T06:27:22.250Z,101545.31
2023-03-28T06:29:49.523Z,101558.28
2023-03-28T06:32:18.146Z,101554.66
2023-03-28T06:34:45.735Z,101561.72
2023-03-28T06:37:13.001Z,101563.75
2023-03-28T06:39:40.699Z,101567.94
2023-03-28T06:42:07.954Z,101557.97
2023-03-28T06:44:35.330Z,101574.50
2023-03-28T06:47:02.777Z,101577.72
2023-03-28T06:49:29.993Z,101575.13
2023-03-28T06:51:57.246Z,101590.47
2023-03-28T06:54:24.669Z,101584.03
2023-03-28T06:56:51.892Z,101593.59
2023-03-28T06:59:19.391Z,101589.31
2023-03-28T07:01:46.555Z,101600.28
2023-03-28T07:04:13.751Z,101598.03
2023-03-28T07:06:41.371Z,101608.34
2023-03-28T07:09:08.630Z,101610.59
2023-03-28T07:11:35.967Z,101613.81
2023-03-28T07:14:03.183Z,101609.19
2023-03-28T07:16:30.497Z,101614.91
2023-03-28T07:18:57.774Z,101614.47
2023-03-28T07:21:25.230Z,101612.06
2023-03-28T07:23:55.471Z,101622.59
2023-03-28T07:26:22.761Z,101619.69
2023-03-28T07:28:50.549Z,101613.13
2023-03-28T07:31:18.436Z,101627.31
2023-03-28T07:33:45.978Z,101624.50
2023-03-28T07:36:21.236Z,101626.88
2023-03-28T07:38:49.494Z,101629.16
2023-03-28T07:41:17.144Z,101638.91
2023-03-28T07:43:44.668Z,101647.28
2023-03-28T07:46:14.451Z,101644.47
2023-03-28T07:48:42.277Z,101644.59
2023-03-28T07:51:10.721Z,101643.06
2023-03-28T07:53:38.243Z,101650.28
2023-03-28T07:56:10.535Z,101640.38
2023-03-28T07:58:39.189Z,101645.44
2023-03-28T08:01:12.085Z,101658.03
2023-03-28T08:03:40.347Z,101649.09
2023-03-28T08:06:24.223Z,101659.09
2023-03-28T08:08:58.441Z,101664.34
2023-03-28T08:11:27.086Z,101665.41
2023-03-28T08:13:56.767Z,101670.47
2023-03-28T08:16:24.341Z,101661.44
2023-03-28T08:19:03.512Z,101666.06
2023-03-28T08:21:37.697Z,101665.09
2023-03-28T08:24:05.787Z,101678.13
2023-03-28T08:26:33.096Z,101670.91
2023-03-28T08:29:00.413Z,101676.06
2023-03-28T08:31:28.397Z,101675.72
2023-03-28T08:33:56.584Z,101676.41
2023-03-28T08:36:25.815Z,101678.31
2023-03-28T08:38:55.024Z,101681.84
2023-03-28T08:41:30.647Z,101674.78
2023-03-28T08:44:35.446Z,101681.22
2023-03-28T08:47:14.697Z,101683.16
2023-03-28T08:49:50.293Z,101683.91
2023-03-28T08:52:19.404Z,101684.66
2023-03-28T08:54:58.157Z,101682.50
2023-03-28T08:57:29.528Z,101682.72
2023-03-28T09:00:15.133Z,101689.06
2023-03-28T09:02:43.558Z,101704.63
2023-03-28T09:05:37.196Z,101701.00
2023-03-28T09:08:21.763Z,101708.84
2023-03-28T09:11:32.243Z,101704.41
2023-03-28T09:14:06.923Z,101705.69
2023-03-28T09:16:46.399Z,101714.06
2023-03-28T09:19:36.878Z,101731.88
2023-03-28T09:22:23.097Z,101722.78
2023-03-28T09:25:03.527Z,101728.25
2023-03-28T09:27:41.014Z,101721.06
2023-03-28T09:30:19.212Z,101731.38
2023-03-28T09:32:49.686Z,101725.16
2023-03-28T09:35:19.538Z,101735.00
2023-03-28T09:37:50.297Z,101721.56
2023-03-28T09:40:32.881Z,101724.25
2023-03-28T09:43:15.062Z,101733.19
2023-03-28T09:46:03.179Z,101726.94
2023-03-28T09:48:36.876Z,101737.94
2023-03-28T09:51:06.173Z,101739.63
2023-03-28T09:53:37.424Z,101744.78
2023-03-28T09:56:27.435Z,101740.28
2023-03-28T09:58:57.317Z,101738.66
2023-03-28T10:01:37.848Z,101746.84
2023-03-28T10:04:17.723Z,101759.41
2023-03-28T10:06:46.291Z,101747.69
2023-03-28T10:09:20.559Z,101746.84
2023-03-28T10:11:56.584Z,101759.91
2023-03-28T10:14:38.400Z,101757.22
2023-03-28T10:17:08.364Z,101753.78
2023-03-28T10:19:37.784Z,101759.41
2023-03-28T10:22:14.193Z,101752.19
2023-03-28T10:24:41.646Z,101745.97
2023-03-28T10:27:24.139Z,101751.22
2023-03-28T10:29:53.969Z,101748.66
2023-03-28T10:32:26.749Z,101757.56
2023-03-28T10:35:18.675Z,101756.59
2023-03-28T10:37:48.586Z,101761.53
2023-03-28T10:40:19.131Z,101749.94
2023-03-28T10:42:49.422Z,101758.28
2023-03-28T10:45:37.526Z,101765.94
2023-03-28T10:48:21.232Z,101764.53
2023-03-28T10:50:53.658Z,101756.72
2023-03-28T10:53:49.209Z,101755.94
2023-03-28T10:56:59.163Z,101762.81
2023-03-28T11:00:01.342Z,101767.22
2023-03-28T11:02:33.471Z,101773.47
2023-03-28T11:05:23.210Z,101770.13
2023-03-28T11:07:58.638Z,101761.31
2023-03-28T11:11:08.738Z,101763.03
2023-03-28T11:13:52.374Z,101767.44
2023-03-28T11:16:43.714Z,101767.66
2023-03-28T11:19:46.273Z,101760.47
2023-03-28T11:22:13.410Z,101772.56
2023-03-28T11:24:49.585Z,101762.81
2023-03-28T11:27:35.474Z,101779.78
2023-03-28T11:30:18.570Z,101765.63
2023-03-28T11:33:02.205Z,101773.88
2023-03-28T11:35:36.325Z,101768.38
2023-03-28T11:38:15.737Z,101777.41
2023-03-28T11:40:59.865Z,101779.03
2023-03-28T11:43:45.978Z,101767.88
2023-03-28T11:46:23.084Z,101776.84
2023-03-28T11:49:13.774Z,101785.69
2023-03-28T11:51:47.476Z,101779.03
2023-03-28T11:54:24.627Z,101769.44
2023-03-28T11:57:12.062Z,101771.19
2023-03-28T11:59:55.421Z,101768.81
2023-03-28T12:03:02.294Z,101770.44
2023-03-28T12:05:36.716Z,101761.31
2023-03-28T12:08:21.216Z,101766.56
2023-03-28T12:10:52.947Z,101761.53
2023-03-28T12:13:23.880Z,101762.38
2023-03-28T12:15:57.444Z,101759.59
2023-03-28T12:18:41.573Z,101777.22
2023-03-28T12:21:13.865Z,101763.03
2023-03-28T12:24:01.015Z,101766.34
2023-03-28T12:26:57.956Z,101762.06
2023-03-28T12:29:47.278Z,101776.44
2023-03-28T12:32:38.248Z,101763.88
2023-03-28T12:35:14.032Z,101780.66
2023-03-28T12:37:59.839Z,101769.59
2023-03-28T12:40:56.020Z,101758.66
2023-03-28T12:43:48.601Z,101757.03
2023-03-28T12:46:46.585Z,101763.38
2023-03-28T12:49:32.851Z,101759.63
2023-03-28T12:52:05.363Z,101762.19
2023-03-28T12:54:54.277Z,101759.38
2023-03-28T12:57:46.005Z,101750.38
2023-03-28T13:00:22.398Z,101772.78
2023-03-28T13:03:01.678Z,101767.56
2023-03-28T13:05:57.459Z,101751.66
2023-03-28T13:08:54.162Z,101759.63
2023-03-28T13:11:32.331Z,101765.84
2023-03-28T13:14:28.065Z,101769.38
2023-03-28T13:17:00.265Z,101777.22
2023-03-28T13:19:46.417Z,101759.16
2023-03-28T13:22:31.410Z,101748.41
2023-03-28T13:25:27.328Z,101754.13
2023-03-28T13:28:22.533Z,101756.94
2023-03-28T13:31:05.252Z,101750.03
2023-03-28T13:33:34.902Z,101769.47
2023-03-28T13:36:02.372Z,101754.34
2023-03-28T13:38:51.146Z,101754.00
2023-03-28T13:41:42.353Z,101743.59
2023-03-28T13:44:42.183Z,101751.66
2023-03-28T13:47:16.688Z,101744.25
2023-03-28T13:49:57.676Z,101749.75
2023-03-28T13:52:25.581Z,101748.00
2023-03-28T13:54:59.791Z,101753.16
2023-03-28T13:57:28.080Z,101748.63
2023-03-28T14:00:05.980Z,101749.75
2023-03-28T14:02:38.744Z,101738.78
2023-03-28T14:05:27.314Z,101759.94
2023-03-28T14:07:55.720Z,101748.53
2023-03-28T14:10:37.001Z,101747.25
2023-03-28T14:13:14.322Z,101752.72
2023-03-28T14:15:42.003Z,101739.41
2023-03-28T14:18:16.782Z,101739.41
2023-03-28T14:20:45.650Z,101734.25
2023-03-28T14:23:27.756Z,101752.94
2023-03-28T14:25:55.911Z,101732.31
2023-03-28T14:28:31.573Z,101734.78
2023-03-28T14:30:59.283Z,101737.59
2023-03-28T14:33:31.945Z,101728.13
2023-03-28T14:36:04.023Z,101736.09
2023-03-28T14:38:37.822Z,101730.81
2023-03-28T14:41:19.309Z,101734.25
2023-03-28T14:43:55.882Z,101728.34
2023-03-28T14:46:25.864Z,101730.41
2023-03-28T14:48:57.502Z,101735.97
2023-03-28T14:51:25.425Z,101723.53
2023-03-28T14:53:52.648Z,101726.50
2023-03-28T14:56:29.061Z,101726.94
2023-03-28T14:58:59.854Z,101728.91
2023-03-28T15:01:27.571Z,101721.69
2023-03-28T15:03:59.701Z,101725.25
2023-03-28T15:06:29.371Z,101719.66
2023-03-28T15:08:59.888Z,101727.50
2023-03-28T15:11:37.958Z,101726.94
2023-03-28T15:14:11.958Z,101720.31
2023-03-28T15:16:42.287Z,101718.25
2023-03-28T15:19:20.074Z,101714.94
2023-03-28T15:21:57.767Z,101715.56
2023-03-28T15:24:27.083Z,101719.66
2023-03-28T15:27:01.897Z,101722.47
2023-03-28T15:29:32.983Z,101720.72
2023-03-28T15:32:06.605Z,101711.09
2023-03-28T15:35:02.009Z,101714.50
2023-03-28T15:37:29.469Z,101696.47
2023-03-28T15:40:32.348Z,101704.84
2023-03-28T15:43:01.652Z,101705.94
2023-03-28T15:45:43.573Z,101708.91
2023-03-28T15:48:16.606Z,101708.06
2023-03-28T15:50:53.595Z,101703.47
2023-03-28T15:53:21.504Z,101706.13
2023-03-28T15:55:49.699Z,101709.88
2023-03-28T15:58:19.178Z,101714.72
2023-03-28T16:00:53.981Z,101706.34
2023-03-28T16:03:24.106Z,101707.50
2023-03-28T16:06:09.831Z,101710.41
2023-03-28T16:08:47.466Z,101703.13
2023-03-28T16:11:23.268Z,101696.78
2023-03-28T16:13:51.261Z,101700.31
2023-03-28T16:16:29.141Z,101697.63
2023-03-28T16:18:56.440Z,101715.25
2023-03-28T16:21:23.905Z,101710.41
2023-03-28T16:23:51.117Z,101705.25
2023-03-28T16:26:18.335Z,101704.19
2023-03-28T16:28:45.526Z,101697.00
2023-03-28T16:31:15.050Z,101701.22
2023-03-28T16:33:42.247Z,101700.22
2023-03-28T16:36:12.982Z,101702.28
2023-03-28T16:38:40.658Z,101709.56
2023-03-28T16:41:07.910Z,101706.22
2023-03-28T16:43:35.118Z,101705.03
2023-03-28T16:46:02.858Z,101702.91
2023-03-28T16:48:32.345Z,101699.69
2023-03-28T16:51:04.759Z,101690.78
2023-03-28T16:53:33.084Z,101689.16
2023-03-28T16:56:00.673Z,101689.56
2023-03-28T16:58:29.660Z,101701.19
2023-03-28T17:00:57.076Z,101692.94
2023-03-28T17:03:24.478Z,101689.16
2023-03-28T17:05:51.826Z,101690.25
2023-03-28T17:08:18.997Z,101693.66
2023-03-28T17:10:47.458Z,101692.94
2023-03-28T17:13:15.485Z,101692.38
2023-03-28T17:15:43.041Z,101687.66
2023-03-28T17:18:10.956Z,101684.13
2023-03-28T17:20:38.193Z,101684.25
2023-03-28T17:23:05.449Z,101688.00
2023-03-28T17:25:41.565Z,101689.69
2023-03-28T17:28:15.713Z,101692.59
2023-03-28T17:30:44.062Z,101683.34
2023-03-28T17:33:11.958Z,101680.66
2023-03-28T17:35:39.168Z,101676.91
2023-03-28T17:38:06.729Z,101675.22
2023-03-28T17:40:33.949Z,101686.38
2023-03-28T17:43:01.132Z,101688.28
2023-03-28T17:45:28.545Z,101678.88
2023-03-28T17:47:55.782Z,101682.28
2023-03-28T17:50:23.144Z,101692.19
2023-03-28T17:52:50.628Z,101690.13
2023-03-28T17:55:18.069Z,101685.75
2023-03-28T17:57:45.674Z,101686.81
2023-03-28T18:00:13.677Z,101684.97
2023-03-28T18:02:46.005Z,101680.38
2023-03-28T18:05:15.501Z,101684.53
2023-03-28T18:07:42.687Z,101681.09
2023-03-28T18:10:10.404Z,101684.47
2023-03-28T18:12:40.477Z,101687.13
2023-03-28T18:15:08.125Z,101681.66
2023-03-28T18:17:37.531Z,101687.13
2023-03-28T18:20:05.521Z,101694.31
2023-03-28T18:22:33.722Z,101688.00
2023-03-28T18:25:02.999Z,101692.81
2023-03-28T18:27:30.248Z,101688.28
2023-03-28T18:29:57.398Z,101688.50
2023-03-28T18:32:24.781Z,101692.59
2023-03-28T18:34:52.343Z,101695.19
2023-03-28T18:37:19.520Z,101692.50
2023-03-28T18:39:46.755Z,101696.91
2023-03-28T18:42:13.989Z,101686.38
2023-03-28T18:44:41.869Z,101687.44
2023-03-28T18:47:10.695Z,101691.53
2023-03-28T18:49:37.867Z,101685.31
2023-03-28T18:52:05.117Z,101695.91
2023-03-28T18:54:34.949Z,101690.66
2023-03-28T18:57:03.283Z,101685.31
2023-03-28T18:59:31.021Z,101688.94
2023-03-28T19:01:59.458Z,101690.88
2023-03-28T19:04:27.444Z,101684.53
2023-03-28T19:06:54.857Z,101675.84
2023-03-28T19:09:22.021Z,101677.47
2023-03-28T19:11:52.475Z,101679.50
2023-03-28T19:14:19.693Z,101675.84
2023-03-28T19:16:47.115Z,101676.81
2023-03-28T19:19:14.345Z,101675.00
2023-03-28T19:21:41.754Z,101680.34
2023-03-28T19:24:09.183Z,101684.31
2023-03-28T19:26:37.061Z,101685.28
2023-03-28T19:29:04.345Z,101685.59
2023-03-28T19:31:31.731Z,101688.28
2023-03-28T19:33:58.947Z,101688.28
2023-03-28T19:36:26.336Z,101688.28
2023-03-28T19:38:53.599Z,101687.53
2023-03-28T19:41:22.897Z,101682.06
2023-03-28T19:43:51.121Z,101691.81
2023-03-28T19:46:35.235Z,101681.97
2023-03-28T19:49:06.256Z,101684.00
2023-03-28T19:51:33.858Z,101686.56
2023-03-28T19:54:01.080Z,101680.13
2023-03-28T19:56:28.364Z,101674.13
2023-03-28T19:58:55.610Z,101675.84
2023-03-28T20:01:22.977Z,101677.53
2023-03-28T20:03:52.890Z,101679.50
2023-03-28T20:06:21.849Z,101675.84
2023-03-28T20:08:49.558Z,101680.44
2023-03-28T20:11:16.953Z,101675.06
2023-03-28T20:13:44.453Z,101676.03
2023-03-28T20:16:12.579Z,101669.47
2023-03-28T20:18:40.339Z,101665.75
2023-03-28T20:21:14.522Z,101662.09
2023-03-28T20:23:42.433Z,101662.28
2023-03-28T20:26:21.592Z,101654.72
2023-03-28T20:28:52.611Z,101651.81
2023-03-28T20:31:19.875Z,101649.53
2023-03-28T20:33:47.178Z,101650.63
2023-03-28T20:36:14.582Z,101640.84
2023-03-28T20:38:42.075Z,101634.06
2023-03-28T20:41:13.991Z,101637.03
2023-03-28T20:43:47.426Z,101637.78
2023-03-28T20:46:18.584Z,101634.72
2023-03-28T20:48:53.052Z,101634.41
2023-03-28T20:51:22.891Z,101631.25
2023-03-28T20:53:54.295Z,101636.56
2023-03-28T20:56:22.299Z,101636.28
2023-03-28T20:58:53.126Z,101626.72
2023-03-28T21:01:28.117Z,101621.56
2023-03-28T21:03:57.333Z,101624.47
2023-03-28T21:06:25.934Z,101616.44
2023-03-28T21:08:55.438Z,101612.66
2023-03-28T21:11:28.048Z,101617.50
2023-03-28T21:13:56.511Z,101622.25
2023-03-28T21:16:27.242Z,101620.06
2023-03-28T21:18:54.612Z,101615.25
2023-03-28T21:21:22.306Z,101613.75
2023-03-28T21:23:49.843Z,101616.31
2023-03-28T21:26:21.454Z,101617.63
2023-03-28T21:28:49.239Z,101618.16
2023-03-28T21:31:20.859Z,101618.50
2023-03-28T21:33:49.042Z,101612.31
2023-03-28T21:36:18.013Z,101606.94
2023-03-28T21:38:46.173Z,101604.25
2023-03-28T21:41:13.746Z,101601.38
2023-03-28T21:43:41.584Z,101596.84
2023-03-28T21:46:11.306Z,101605.88
2023-03-28T21:48:38.759Z,101597.06
2023-03-28T21:51:06.754Z,101600.16
2023-03-28T21:53:36.535Z,101599.44
2023-03-28T21:56:04.800Z,101601.38
2023-03-28T21:58:33.353Z,101597.94
2023-03-28T22:01:02.695Z,101602.44
2023-03-28T22:03:31.037Z,101597.94
2023-03-28T22:05:58.889Z,101599.06
2023-03-28T22:08:26.186Z,101603.53
2023-03-28T22:10:55.205Z,101600.91
2023-03-28T22:13:23.955Z,101588.28
2023-03-28T22:15:52.478Z,101591.16
2023-03-28T22:18:20.473Z,101585.47
2023-03-28T22:20:53.035Z,101583.94
2023-03-28T22:23:21.722Z,101582.25
2023-03-28T22:25:49.333Z,101583.66
2023-03-28T22:28:16.929Z,101577.34
2023-03-28T22:30:44.433Z,101578.69
2023-03-28T22:33:13.362Z,101585.88
2023-03-28T22:35:41.533Z,101574.75
2023-03-28T22:38:09.263Z,101576.88
2023-03-28T22:40:36.413Z,101573.06
2023-03-28T22:43:03.633Z,101577.94
2023-03-28T22:45:31.308Z,101578.81
2023-03-28T22:48:03.070Z,101571.72
2023-03-28T22:50:33.340Z,101567.25
2023-03-28T22:53:02.187Z,101564.22
2023-03-28T22:55:29.513Z,101571.34
2023-03-28T22:57:57.015Z,101565.84
2023-03-28T23:00:24.188Z,101561.03
2023-03-28T23:02:52.292Z,101552.22
2023-03-28T23:05:20.160Z,101550.53
2023-03-28T23:07:47.584Z,101542.34
2023-03-28T23:10:17.445Z,101541.63
2023-03-28T23:12:44.803Z,101541.38
2023-03-28T23:15:12.240Z,101535.28
2023-03-28T23:17:39.676Z,101530.66
2023-03-28T23:20:12.356Z,101534.53
2023-03-28T23:22:41.015Z,101533.78
2023-03-28T23:25:09.132Z,101542.69
2023-03-28T23:27:36.702Z,101538.81
2023-03-28T23:30:04.496Z,101528.84
2023-03-28T23:32:31.798Z,101528.22
2023-03-28T23:34:58.994Z,101523.13
2023-03-28T23:37:27.377Z,101520.38
2023-03-28T23:39:55.404Z,101522.09
2023-03-28T23:42:23.549Z,101525.63
2023-03-28T23:44:50.806Z,101517.59
2023-03-28T23:47:20.356Z,101517.75
2023-03-28T23:49:47.675Z,101512.34
2023-03-28T23:52:16.334Z,101505.16
2023-03-28T23:54:44.258Z,101502.66
2023-03-28T23:57:11.844Z,101494.91
2023-03-28T23:59:39.079Z,101491.94
